Time;durP1;ratioP1;P1;durP2;ratioP2;P2;SDS_P1;SDS_P2;PMS_P1;PMS_P2;Temp;Humidity;BMP_temperature;BMP_pressure;BME280_temperature;BME280_humidity;BME280_pressure;Samples;Min_cycle;Max_cycle;Signal;HPM_P1;HPM_P2
2022/02/02 00:00:53;;;;;;;46.55;8.25;;;7.10;94.00;;;;;;6236003;23;20011;-64
2022/02/02 00:03:21;;;;;;;41.38;6.72;;;7.00;94.00;;;;;;6234907;23;20015;-62
2022/02/02 00:13:26;;;;;;;39.50;7.10;;;7.10;94.10;;;;;;6208864;23;20000;-59
2022/02/02 00:21:09;;;;;;;27.65;6.78;;;7.00;94.20;;;;;;6210568;23;20091;-61
2022/02/02 00:23:40;;;;;;;23.83;4.97;;;7.00;94.10;;;;;;6207957;23;20099;-59
2022/02/02 00:26:11;;;;;;;26.35;5.13;;;7.00;94.10;;;;;;6210046;23;20027;-60
2022/02/02 00:28:41;;;;;;;22.10;4.82;;;7.00;94.20;;;;;;6209101;23;20000;-59
2022/02/02 00:31:12;;;;;;;28.15;5.82;;;7.00;94.20;;;;;;6234931;23;20008;-61
2022/02/02 00:33:48;;;;;;;19.30;4.78;;;7.00;94.20;;;;;;6207177;23;20004;-60
2022/02/02 00:36:20;;;;;;;30.70;6.30;;;7.00;94.20;;;;;;6233252;23;20008;-60
2022/02/02 00:38:45;;;;;;;22.08;5.45;;;7.00;94.30;;;;;;6208948;23;20004;-58
2022/02/02 00:41:11;;;;;;;26.23;5.68;;;7.00;94.30;;;;;;6183337;23;19996;-62
2022/02/02 00:43:39;;;;;;;25.55;5.18;;;7.00;94.60;;;;;;6234487;23;20004;-59
2022/02/02 00:46:05;;;;;;;24.17;5.03;;;7.00;94.40;;;;;;6206996;23;20087;-59
2022/02/02 00:48:32;;;;;;;23.80;4.72;;;7.00;94.40;;;;;;6206006;23;20005;-59
2022/02/02 00:50:58;;;;;;;30.17;5.50;;;7.00;94.40;;;;;;6234065;23;20116;-59
2022/02/02 00:53:23;;;;;;;16.85;5.10;;;6.70;94.30;;;;;;6234654;23;20084;-63
2022/02/02 00:55:50;;;;;;;23.25;4.97;;;7.00;94.40;;;;;;6208197;23;20039;-60
2022/02/02 00:58:16;;;;;;;24.90;5.75;;;7.00;94.40;;;;;;6182983;23;20278;-62
2022/02/02 01:00:41;;;;;;;19.95;4.93;;;7.00;94.40;;;;;;6206160;23;20028;-62
2022/02/02 01:03:07;;;;;;;18.60;4.15;;;7.00;94.50;;;;;;6233321;23;20008;-60
2022/02/02 01:05:33;;;;;;;22.02;3.83;;;7.00;94.40;;;;;;6208331;23;20381;-62
2022/02/02 01:10:42;;;;;;;13.52;4.18;;;7.00;94.50;;;;;;6233882;23;20087;-58
2022/02/02 01:18:33;;;;;;;19.55;5.22;;;7.00;94.50;;;;;;6220083;23;20095;-62
2022/02/02 01:21:07;;;;;;;17.48;4.93;;;7.20;94.60;;;;;;6234960;23;20032;-61
2022/02/02 01:29:01;;;;;;;16.13;4.20;;;7.00;94.60;;;;;;6209707;23;20519;-62
2022/02/02 01:31:27;;;;;;;20.17;4.30;;;7.00;94.60;;;;;;6208042;23;20032;-61
2022/02/02 01:33:52;;;;;;;19.25;4.55;;;7.00;94.70;;;;;;6234768;23;20004;-60
2022/02/02 01:36:18;;;;;;;14.70;3.90;;;7.00;94.70;;;;;;6207090;23;20307;-59
2022/02/02 01:38:45;;;;;;;12.52;3.70;;;7.00;94.70;;;;;;6233533;23;20285;-61
2022/02/02 01:41:20;;;;;;;13.27;3.70;;;7.00;94.80;;;;;;6207601;23;20430;-61
2022/02/02 01:43:49;;;;;;;9.20;3.60;;;7.00;94.80;;;;;;6235888;23;20001;-64
2022/02/02 01:46:18;;;;;;;15.13;4.53;;;7.00;94.80;;;;;;6211022;23;20007;-60
2022/02/02 01:53:54;;;;;;;12.18;3.45;;;7.00;94.80;;;;;;6208915;23;20008;-58
2022/02/02 01:56:20;;;;;;;8.93;3.30;;;7.00;94.80;;;;;;6235548;23;20129;-62
2022/02/02 02:01:23;;;;;;;9.05;2.65;;;7.00;94.80;;;;;;6236633;23;20707;-61
2022/02/02 02:03:48;;;;;;;12.27;3.88;;;7.00;94.80;;;;;;6182637;23;20030;-62
2022/02/02 02:06:14;;;;;;;11.05;3.13;;;7.00;94.80;;;;;;6233583;23;20046;-62
2022/02/02 02:08:41;;;;;;;13.68;3.05;;;7.00;94.80;;;;;;6207394;23;20004;-62
2022/02/02 02:11:09;;;;;;;9.38;2.80;;;7.00;94.90;;;;;;6185370;23;20670;-60
2022/02/02 02:16:10;;;;;;;8.75;2.55;;;7.00;95.00;;;;;;6236911;23;20011;-58
2022/02/02 02:18:35;;;;;;;9.63;2.42;;;7.00;95.00;;;;;;6234056;23;20362;-61
2022/02/02 02:21:01;;;;;;;10.80;3.08;;;6.90;95.10;;;;;;6234091;23;20083;-63
2022/02/02 02:23:29;;;;;;;6.10;2.63;;;7.00;95.20;;;;;;6209312;23;20047;-63
2022/02/02 02:25:54;;;;;;;6.40;2.45;;;7.00;95.20;;;;;;6210596;23;20391;-61
2022/02/02 02:30:53;;;;;;;6.90;2.53;;;6.90;95.30;;;;;;6234702;23;20095;-60
2022/02/02 02:33:51;;;;;;;4.90;2.03;;;6.90;95.40;;;;;;6234341;23;20031;-60
2022/02/02 02:39:31;;;;;;;6.43;2.08;;;6.90;95.50;;;;;;6134940;23;20044;-59
2022/02/02 02:58:46;;;;;;;6.07;1.77;;;6.90;95.50;;;;;;6181711;23;20058;-63
2022/02/02 03:01:29;;;;;;;5.55;2.00;;;6.90;95.60;;;;;;6235576;23;20007;-59
2022/02/02 03:55:40;;;;;;;2.22;1.17;;;7.00;96.00;;;;;;6235754;23;20109;-61
2022/02/02 04:05:44;;;;;;;1.35;1.00;;;7.00;96.20;;;;;;6206884;23;20331;-60
2022/02/02 04:08:28;;;;;;;2.72;1.20;;;7.00;96.20;;;;;;6235986;23;20244;-60
2022/02/02 04:10:58;;;;;;;1.35;0.88;;;6.90;96.20;;;;;;6211855;23;19996;-60
2022/02/02 04:39:03;;;;;;;1.60;0.80;;;7.00;96.10;;;;;;6236147;23;20011;-62
2022/02/02 05:07:26;;;;;;;1.67;0.73;;;7.10;96.00;;;;;;6201781;23;20361;-60
2022/02/02 05:44:46;;;;;;;4.70;0.98;;;7.20;96.10;;;;;;6205721;23;20350;-63
2022/02/02 05:50:11;;;;;;;12.35;1.65;;;7.10;96.30;;;;;;6204766;23;20018;-59
2022/02/02 05:52:37;;;;;;;27.33;3.33;;;7.20;96.50;;;;;;6202357;23;20026;-60
2022/02/02 05:55:03;;;;;;;124.90;9.65;;;7.20;96.50;;;;;;6206754;23;20555;-62
2022/02/02 05:57:31;;;;;;;267.55;23.30;;;7.20;96.50;;;;;;6200805;23;20037;-61
2022/02/02 05:59:57;;;;;;;142.75;12.52;;;7.20;96.50;;;;;;6177903;23;20032;-61
2022/02/02 06:02:23;;;;;;;116.38;10.40;;;7.20;96.40;;;;;;6177449;23;20335;-59
2022/02/02 06:04:48;;;;;;;109.68;9.82;;;7.20;96.40;;;;;;6179053;23;20009;-58
2022/02/02 06:07:14;;;;;;;93.82;9.35;;;7.20;96.30;;;;;;6173269;23;20009;-59
2022/02/02 06:09:42;;;;;;;85.53;8.05;;;7.20;96.40;;;;;;6205422;23;20004;-58
2022/02/02 06:12:08;;;;;;;85.13;7.45;;;7.20;96.30;;;;;;6203205;23;20027;-60
2022/02/02 06:14:34;;;;;;;83.00;7.63;;;7.20;96.40;;;;;;6202054;23;20435;-61
2022/02/02 06:17:06;;;;;;;87.45;7.85;;;7.20;96.40;;;;;;6178198;23;20037;-59
2022/02/02 06:19:32;;;;;;;74.85;5.78;;;7.20;96.50;;;;;;6203994;23;20344;-63
2022/02/02 06:22:10;;;;;;;54.72;5.47;;;7.20;96.50;;;;;;6203743;23;20005;-62
2022/02/02 06:24:46;;;;;;;67.28;6.57;;;7.20;96.50;;;;;;6202038;23;20119;-59
2022/02/02 06:27:12;;;;;;;45.25;5.10;;;7.30;96.50;;;;;;6201551;23;20232;-59
2022/02/02 06:29:44;;;;;;;57.63;4.70;;;7.30;96.50;;;;;;6175844;23;20019;-60
2022/02/02 06:32:12;;;;;;;54.85;6.07;;;7.30;96.50;;;;;;6203714;23;20039;-62
2022/02/02 06:34:42;;;;;;;52.17;4.60;;;7.30;96.40;;;;;;6203934;23;20005;-60
2022/02/02 06:37:11;;;;;;;64.07;6.30;;;7.30;96.40;;;;;;6203298;23;20047;-62
2022/02/02 06:39:37;;;;;;;49.47;6.13;;;7.30;96.40;;;;;;6200853;23;20072;-59
2022/02/02 06:42:03;;;;;;;48.03;4.18;;;7.30;96.40;;;;;;6203084;23;20900;-59
2022/02/02 06:44:28;;;;;;;50.45;5.25;;;7.30;96.30;;;;;;6204786;23;20015;-62
2022/02/02 06:46:54;;;;;;;42.25;5.20;;;7.40;96.40;;;;;;6202268;23;20008;-59
2022/02/02 06:49:20;;;;;;;49.33;6.13;;;7.30;96.30;;;;;;6202751;23;20442;-62
2022/02/02 06:51:57;;;;;;;58.38;6.65;;;7.40;96.30;;;;;;6203339;23;20103;-59
2022/02/02 06:54:45;;;;;;;79.28;6.22;;;7.40;96.30;;;;;;6178810;23;20028;-61
2022/02/02 06:57:20;;;;;;;55.65;5.32;;;7.40;96.40;;;;;;6179726;23;20027;-60
2022/02/02 07:00:06;;;;;;;65.20;6.40;;;7.40;96.40;;;;;;6202748;23;20047;-62
2022/02/02 07:02:45;;;;;;;49.85;5.18;;;7.40;96.40;;;;;;6203280;23;20634;-60
2022/02/02 07:10:41;;;;;;;43.88;4.60;;;7.40;96.30;;;;;;6203024;23;20018;-59
2022/02/02 07:21:05;;;;;;;30.92;3.70;;;7.40;96.50;;;;;;6203450;23;20043;-64
2022/02/02 07:23:50;;;;;;;31.88;4.47;;;7.40;96.60;;;;;;6179602;23;20030;-58
2022/02/02 07:29:08;;;;;;;28.63;3.40;;;7.50;96.70;;;;;;6202459;23;20282;-63
2022/02/02 07:31:57;;;;;;;32.35;3.92;;;7.40;96.70;;;;;;6201417;23;20291;-62
2022/02/02 07:34:29;;;;;;;25.20;3.38;;;7.40;96.90;;;;;;6201400;23;20136;-60
2022/02/02 07:36:57;;;;;;;24.90;3.70;;;7.50;96.90;;;;;;6205832;23;20074;-63
2022/02/02 07:39:24;;;;;;;22.05;3.13;;;7.50;97.00;;;;;;6203392;23;20058;-59
2022/02/02 07:41:50;;;;;;;33.90;3.53;;;7.50;96.90;;;;;;6175580;23;20104;-60
2022/02/02 07:44:22;;;;;;;25.83;3.10;;;7.50;96.90;;;;;;6175012;23;20072;-61
2022/02/02 07:46:50;;;;;;;17.42;2.58;;;7.50;96.90;;;;;;6201038;23;20038;-60
2022/02/02 07:49:16;;;;;;;20.00;3.33;;;7.50;96.90;;;;;;6148517;23;20025;-61
2022/02/02 07:51:43;;;;;;;15.90;3.30;;;7.50;97.00;;;;;;6201700;23;20080;-60
2022/02/02 07:54:15;;;;;;;13.98;2.80;;;7.50;97.00;;;;;;6200175;23;20398;-59
2022/02/02 07:56:42;;;;;;;13.35;2.60;;;7.50;97.00;;;;;;6196327;23;20036;-60
2022/02/02 07:59:38;;;;;;;22.65;3.00;;;7.50;97.10;;;;;;6173439;23;20494;-58
2022/02/02 08:02:05;;;;;;;22.25;2.92;;;7.50;97.10;;;;;;6197959;23;20001;-62
2022/02/02 08:04:31;;;;;;;18.15;2.70;;;7.50;97.30;;;;;;6200495;23;20008;-60
2022/02/02 08:06:57;;;;;;;22.35;3.22;;;7.50;97.30;;;;;;6202211;23;20012;-62
2022/02/02 08:09:41;;;;;;;16.17;2.05;;;7.50;97.30;;;;;;6177308;23;20012;-60
2022/02/02 08:12:15;;;;;;;21.73;2.95;;;7.50;97.30;;;;;;6199334;23;20327;-62
2022/02/02 08:14:41;;;;;;;16.88;2.45;;;7.60;97.50;;;;;;6196986;23;20457;-62
2022/02/02 08:17:07;;;;;;;16.63;2.38;;;7.60;97.50;;;;;;6199972;23;20005;-61
2022/02/02 08:19:33;;;;;;;19.70;2.25;;;7.60;97.50;;;;;;6176716;23;20307;-59
2022/02/02 08:21:58;;;;;;;15.27;2.35;;;7.60;97.50;;;;;;6201809;23;20076;-60
2022/02/02 08:24:26;;;;;;;17.08;2.70;;;7.60;97.50;;;;;;6201529;23;20015;-60
2022/02/02 08:26:52;;;;;;;13.38;2.22;;;7.60;97.50;;;;;;6202409;23;20011;-63
2022/02/02 08:29:17;;;;;;;18.33;2.75;;;7.60;97.40;;;;;;6200858;23;20354;-62
2022/02/02 08:31:43;;;;;;;40.85;3.75;;;7.60;97.40;;;;;;6203289;23;19997;-61
2022/02/02 08:34:10;;;;;;;15.82;3.25;;;7.60;97.50;;;;;;6203850;23;20063;-61
2022/02/02 08:36:38;;;;;;;22.70;2.33;;;7.60;97.60;;;;;;6201327;23;20009;-61
2022/02/02 08:39:27;;;;;;;15.88;2.65;;;7.60;97.60;;;;;;6150631;23;20497;-58
2022/02/02 08:41:59;;;;;;;16.27;2.42;;;7.70;97.70;;;;;;6201601;23;20001;-59
2022/02/02 08:44:28;;;;;;;29.27;3.97;;;7.70;97.70;;;;;;6198761;23;20000;-61
2022/02/02 08:47:02;;;;;;;20.75;2.47;;;7.70;97.70;;;;;;6201417;23;20442;-58
2022/02/02 08:49:30;;;;;;;18.75;2.28;;;7.70;97.80;;;;;;6178691;23;20446;-59
2022/02/02 08:51:56;;;;;;;15.75;2.70;;;7.70;97.80;;;;;;6172829;23;20016;-59
2022/02/02 08:54:36;;;;;;;19.45;2.70;;;7.70;97.80;;;;;;6174384;23;20480;-61
2022/02/02 08:57:26;;;;;;;23.98;2.60;;;7.70;97.80;;;;;;6221972;23;20430;-60
2022/02/02 08:59:58;;;;;;;15.70;2.92;;;7.80;98.00;;;;;;6206523;23;20004;-62
2022/02/02 09:02:28;;;;;;;16.05;2.95;;;7.70;97.90;;;;;;6203698;23;20010;-59
2022/02/02 09:07:38;;;;;;;23.77;3.38;;;7.80;97.90;;;;;;6205242;23;20222;-59
2022/02/02 09:10:09;;;;;;;52.47;4.90;;;7.80;98.00;;;;;;6228451;23;20008;-62
2022/02/02 09:31:36;;;;;;;18.13;2.42;;;7.90;98.20;;;;;;6229656;23;20038;-60
2022/02/02 09:34:07;;;;;;;16.13;3.00;;;7.90;98.20;;;;;;6234364;23;20041;-59
2022/02/02 09:36:34;;;;;;;15.07;2.63;;;7.90;98.20;;;;;;6234111;23;20032;-62
2022/02/02 09:39:09;;;;;;;22.42;3.00;;;8.00;98.30;;;;;;6235636;23;20000;-61
2022/02/02 09:44:03;;;;;;;19.67;3.78;;;8.00;98.40;;;;;;6206887;23;20085;-60
2022/02/02 09:46:34;;;;;;;44.97;5.20;;;8.00;98.40;;;;;;6228868;23;20003;-61
2022/02/02 09:49:07;;;;;;;38.33;5.72;;;8.00;98.60;;;;;;6227139;23;20039;-59
2022/02/02 09:51:41;;;;;;;45.05;5.63;;;8.00;98.80;;;;;;6208365;23;20012;-62
2022/02/02 09:54:13;;;;;;;26.27;4.20;;;8.00;98.80;;;;;;6233461;23;20004;-59
2022/02/02 10:03:01;;;;;;;43.78;5.45;;;8.10;98.80;;;;;;6210478;23;20147;-61
2022/02/02 10:05:07;;;;;;;43.55;6.50;;;8.10;98.80;;;;;;6224643;23;20065;-62
2022/02/02 10:15:19;;;;;;;;;;;8.20;98.90;;;;;;6208527;23;19903;-63
2022/02/02 10:17:45;;;;;;;42.47;5.15;;;8.20;98.70;;;;;;6185091;23;19914;-64
2022/02/02 10:20:22;;;;;;;33.75;4.40;;;8.20;98.70;;;;;;6235334;23;20000;-59
2022/02/02 10:22:50;;;;;;;28.08;4.57;;;8.20;98.80;;;;;;6182524;23;20198;-59
2022/02/02 10:25:27;;;;;;;31.17;4.45;;;8.20;98.80;;;;;;6235261;23;20007;-63
2022/02/02 10:27:53;;;;;;;31.25;5.55;;;8.20;98.80;;;;;;6209565;23;20426;-61
2022/02/02 10:30:20;;;;;;;26.63;3.88;;;8.20;99.00;;;;;;6182727;23;20050;-59
2022/02/02 10:32:50;;;;;;;33.47;4.63;;;8.20;99.00;;;;;;6209515;23;20011;-62
2022/02/02 10:35:37;;;;;;;25.83;5.10;;;8.30;99.00;;;;;;6235216;23;20015;-62
2022/02/02 10:38:08;;;;;;;25.75;4.70;;;8.30;98.90;;;;;;6231211;23;20018;-59
2022/02/02 10:43:20;;;;;;;23.88;4.03;;;8.30;99.10;;;;;;6205337;23;20094;-60
2022/02/02 10:45:46;;;;;;;46.42;6.20;;;8.30;99.20;;;;;;6178471;23;20015;-61
2022/02/02 10:48:22;;;;;;;49.17;5.75;;;8.30;99.20;;;;;;6178186;23;20038;-58
2022/02/02 10:50:59;;;;;;;33.47;4.63;;;8.30;99.20;;;;;;6207852;23;20008;-58
2022/02/02 10:53:35;;;;;;;29.33;5.35;;;8.30;99.20;;;;;;6205164;23;20382;-61
2022/02/02 11:06:42;;;;;;;32.17;4.63;;;8.40;99.30;;;;;;6231485;23;20400;-60
2022/02/02 11:09:15;;;;;;;27.90;4.55;;;8.40;99.30;;;;;;6203900;23;20247;-60
2022/02/02 11:11:41;;;;;;;29.77;5.00;;;8.40;99.40;;;;;;6204881;23;20016;-60
2022/02/02 11:14:25;;;;;;;23.52;4.20;;;8.40;99.40;;;;;;6156007;23;20036;-61
2022/02/02 11:16:55;;;;;;;30.83;3.42;;;8.50;99.50;;;;;;6233147;23;20473;-62
2022/02/02 11:19:20;;;;;;;39.47;5.13;;;8.50;99.60;;;;;;6206303;23;20005;-62
2022/02/02 11:21:46;;;;;;;25.67;4.35;;;8.50;99.70;;;;;;6179843;23;20027;-60
2022/02/02 11:24:19;;;;;;;31.42;4.45;;;8.50;99.70;;;;;;6231794;23;20466;-62
2022/02/02 11:26:45;;;;;;;43.15;4.30;;;8.50;99.70;;;;;;6153041;23;20028;-59
2022/02/02 11:29:30;;;;;;;37.10;4.95;;;8.60;99.60;;;;;;6204915;23;20214;-60
2022/02/02 11:32:09;;;;;;;29.13;4.20;;;8.60;99.70;;;;;;6235506;23;20063;-61
2022/02/02 11:34:34;;;;;;;34.90;5.88;;;8.60;99.70;;;;;;6184604;23;20095;-64
2022/02/02 11:37:03;;;;;;;29.45;4.55;;;8.60;99.60;;;;;;6159553;23;20043;-62
2022/02/02 11:39:42;;;;;;;21.85;4.13;;;8.60;99.70;;;;;;6184021;23;20078;-59
2022/02/02 11:42:29;;;;;;;27.73;4.70;;;8.60;99.60;;;;;;6181998;23;20088;-60
2022/02/02 11:45:07;;;;;;;40.10;5.28;;;8.60;99.70;;;;;;6207174;23;20022;-60
2022/02/02 11:47:39;;;;;;;28.63;5.13;;;8.70;99.70;;;;;;6185894;23;20016;-58
2022/02/02 11:50:06;;;;;;;35.55;4.80;;;8.70;99.60;;;;;;6181414;23;20016;-58
2022/02/02 11:52:35;;;;;;;43.75;5.40;;;8.70;99.60;;;;;;6207032;23;20456;-62
2022/02/02 11:55:02;;;;;;;32.55;4.45;;;8.70;99.50;;;;;;6233174;23;20080;-60
2022/02/02 11:57:36;;;;;;;29.48;3.97;;;8.70;99.50;;;;;;6205241;23;20019;-58
2022/02/02 12:19:42;;;;;;;30.67;4.13;;;8.80;99.60;;;;;;6210896;23;20062;-59
2022/02/02 12:49:24;;;;;;;47.05;5.28;;;8.90;99.70;;;;;;6231815;23;20481;-58
2022/02/02 12:57:21;;;;;;;36.70;5.18;;;9.00;99.70;;;;;;6205362;23;20020;-59
2022/02/02 13:02:13;;;;;;;50.65;6.20;;;9.00;99.60;;;;;;6231081;23;20007;-59
2022/02/02 13:04:40;;;;;;;36.75;4.88;;;9.00;99.60;;;;;;6230373;23;20004;-62
2022/02/02 13:07:08;;;;;;;38.78;5.13;;;8.90;99.60;;;;;;6228357;23;20016;-63
2022/02/02 13:09:35;;;;;;;49.58;5.78;;;9.00;99.60;;;;;;6204845;23;20446;-62
2022/02/02 13:12:24;;;;;;;39.85;5.70;;;9.00;99.60;;;;;;6204102;23;20347;-59
2022/02/02 13:17:40;;;;;;;48.33;6.47;;;9.00;99.50;;;;;;6228776;23;20009;-61
2022/02/02 13:20:10;;;;;;;47.38;5.75;;;9.10;99.50;;;;;;6201947;23;20012;-60
2022/02/02 13:22:38;;;;;;;46.80;6.05;;;9.10;99.50;;;;;;6203643;23;20004;-58
2022/02/02 13:25:04;;;;;;;47.53;5.18;;;9.10;99.50;;;;;;6232322;23;20008;-59
2022/02/02 13:27:34;;;;;;;51.20;6.15;;;9.10;99.50;;;;;;6204241;23;20155;-62
2022/02/02 13:30:05;;;;;;;55.38;7.07;;;9.10;99.40;;;;;;6232548;23;20007;-62
2022/02/02 13:32:44;;;;;;;49.22;5.72;;;9.10;99.40;;;;;;6231494;23;20012;-63
2022/02/02 13:37:57;;;;;;;59.13;6.53;;;9.20;99.50;;;;;;6225229;23;20505;-60
2022/02/02 13:46:38;;;;;;;63.58;7.18;;;9.20;99.40;;;;;;6116882;23;20190;-62
2022/02/02 13:52:31;;;;;;;66.90;9.02;;;9.20;99.50;;;;;;6117486;23;20271;-59
2022/02/02 13:55:13;;;;;;;59.25;8.63;;;9.20;99.60;;;;;;6229044;23;20035;-60
2022/02/02 13:58:03;;;;;;;66.70;9.27;;;9.20;99.70;;;;;;6227400;23;20069;-58
2022/02/02 14:00:47;;;;;;;41.25;6.60;;;9.20;99.70;;;;;;6233537;23;20000;-62
2022/02/02 14:06:18;;;;;;;74.25;8.57;;;9.30;99.60;;;;;;6207986;23;20035;-60
2022/02/02 14:09:03;;;;;;;69.93;10.02;;;9.30;99.60;;;;;;6229405;23;20258;-61
2022/02/02 14:33:15;;;;;;;56.35;7.22;;;9.40;99.90;;;;;;6200712;23;20018;-57
2022/02/02 14:35:40;;;;;;;62.28;7.57;;;9.40;99.90;;;;;;6202582;23;20079;-60
2022/02/02 14:38:06;;;;;;;59.45;5.82;;;9.50;99.90;;;;;;6228512;23;20050;-60
2022/02/02 14:41:18;;;;;;;68.15;8.98;;;9.50;99.90;;;;;;6202096;23;20004;-59
2022/02/02 14:43:30;;;;;;;96.47;10.57;;;9.50;99.90;;;;;;6196690;23;20054;-59
2022/02/02 14:45:59;;;;;;;44.33;7.53;;;9.50;99.90;;;;;;6207345;23;20052;-61
2022/02/02 14:48:39;;;;;;;73.00;7.75;;;9.50;99.90;;;;;;6230063;23;20008;-62
2022/02/02 14:51:23;;;;;;;86.18;9.18;;;9.50;99.90;;;;;;6183791;23;20008;-58
2022/02/02 15:10:11;;;;;;;96.13;11.98;;;9.60;99.90;;;;;;6202751;23;20016;-61
2022/02/02 15:29:19;;;;;;;112.07;11.88;;;9.70;99.90;;;;;;6199107;23;20080;-60
2022/02/02 15:31:46;;;;;;;112.30;12.13;;;9.70;99.90;;;;;;6200905;23;20004;-64
2022/02/02 15:34:17;;;;;;;108.10;11.30;;;9.70;99.90;;;;;;6174659;23;20111;-61
2022/02/02 15:37:17;;;;;;;90.75;11.20;;;9.70;99.90;;;;;;6200422;23;20008;-61
2022/02/02 15:39:38;;;;;;;119.85;14.45;;;9.80;99.90;;;;;;6208931;23;20445;-61
2022/02/02 15:56:30;;;;;;;128.32;13.15;;;9.80;99.90;;;;;;6206273;23;20022;-59
2022/02/02 15:58:29;;;;;;;129.23;13.93;;;9.80;99.90;;;;;;6209078;23;20504;-59
2022/02/02 16:03:27;;;;;;;164.63;17.30;;;9.90;99.90;;;;;;6174006;23;20054;-60
2022/02/02 16:06:02;;;;;;;148.30;16.27;;;9.90;99.90;;;;;;6227300;23;20015;-62
2022/02/02 16:08:28;;;;;;;129.50;14.87;;;10.00;99.90;;;;;;6151251;23;20008;-63
2022/02/02 16:13:40;;;;;;;154.05;16.65;;;10.00;99.90;;;;;;6175062;23;20079;-60
2022/02/02 16:17:02;;;;;;;160.93;17.83;;;10.00;99.90;;;;;;6227291;23;20008;-61
2022/02/02 16:19:00;;;;;;;128.05;16.27;;;10.00;99.90;;;;;;6174582;23;20004;-63
2022/02/02 16:37:34;;;;;;;189.82;19.67;;;10.10;99.90;;;;;;6227801;23;20070;-58
2022/02/02 16:40:01;;;;;;;183.65;18.20;;;10.20;99.90;;;;;;6152738;23;20490;-61
2022/02/02 16:45:12;;;;;;;120.18;14.82;;;10.20;99.90;;;;;;6181998;23;20026;-62
2022/02/02 16:47:38;;;;;;;204.63;19.48;;;10.20;99.90;;;;;;6175083;23;20038;-66
2022/02/02 16:50:04;;;;;;;177.80;17.08;;;10.20;99.90;;;;;;6200000;23;20087;-59
2022/02/02 16:52:31;;;;;;;149.85;16.55;;;10.10;99.90;;;;;;6224374;23;20452;-64
2022/02/02 16:55:01;;;;;;;168.18;18.27;;;10.20;99.90;;;;;;6225481;23;20000;-62
2022/02/02 16:57:47;;;;;;;151.65;15.00;;;10.20;99.90;;;;;;6224230;23;20027;-63
2022/02/02 17:30:14;;;;;;;198.60;18.90;;;10.30;99.90;;;;;;6209942;23;20015;-60
2022/02/02 17:32:49;;;;;;;184.02;17.75;;;10.30;99.90;;;;;;6209273;23;20000;-60
2022/02/02 17:40:34;;;;;;;139.82;16.05;;;10.40;99.90;;;;;;6233705;23;20731;-61
2022/02/02 17:43:36;;;;;;;176.90;19.48;;;10.40;99.90;;;;;;6182516;23;20442;-59
2022/02/02 17:58:04;;;;;;;144.57;16.92;;;10.50;99.90;;;;;;6200667;23;20427;-62
2022/02/02 18:20:57;;;;;;;147.05;17.63;;;10.60;99.90;;;;;;6196253;23;20070;-62
2022/02/02 18:23:30;;;;;;;183.38;21.77;;;10.70;99.90;;;;;;6168361;23;20031;-62
2022/02/02 18:28:50;;;;;;;200.90;20.25;;;10.70;99.90;;;;;;6201427;23;20107;-59
2022/02/02 18:31:37;;;;;;;230.90;23.20;;;10.70;99.90;;;;;;6198146;23;20046;-63
2022/02/02 18:34:42;;;;;;;195.15;23.48;;;10.70;99.90;;;;;;6197803;23;20099;-65
2022/02/02 18:40:41;;;;;;;194.32;23.15;;;10.80;99.90;;;;;;6199421;23;20012;-61
2022/02/02 20:08:02;;;;;;;284.27;29.53;;;11.20;99.90;;;;;;6174555;23;20070;-58
2022/02/02 20:10:38;;;;;;;226.70;28.38;;;11.20;99.90;;;;;;6154287;23;20103;-61
2022/02/02 20:13:04;;;;;;;242.90;26.48;;;11.20;99.90;;;;;;6198151;23;20091;-58
2022/02/02 20:15:33;;;;;;;312.38;32.60;;;11.20;99.90;;;;;;6171707;23;20080;-61
2022/02/02 20:18:02;;;;;;;254.95;29.60;;;11.20;99.90;;;;;;6199959;23;20430;-61
2022/02/02 20:20:27;;;;;;;225.02;26.75;;;11.20;99.90;;;;;;6199535;23;20001;-63
2022/02/02 20:22:53;;;;;;;214.20;26.25;;;11.20;99.90;;;;;;6200086;23;20008;-59
2022/02/02 20:25:19;;;;;;;244.38;28.52;;;11.20;99.90;;;;;;6202149;23;20011;-59
2022/02/02 20:27:53;;;;;;;230.48;27.10;;;11.20;99.90;;;;;;6194478;23;20039;-61
2022/02/02 20:30:18;;;;;;;236.85;25.70;;;11.20;99.90;;;;;;6198280;23;20088;-61
2022/02/02 20:32:44;;;;;;;261.65;29.00;;;11.20;99.90;;;;;;6196008;23;20097;-63
2022/02/02 20:35:09;;;;;;;242.30;28.75;;;11.20;99.90;;;;;;6198160;23;20602;-62
2022/02/02 20:37:35;;;;;;;187.52;23.88;;;11.10;99.90;;;;;;6197382;23;20284;-60
2022/02/02 20:40:05;;;;;;;240.63;28.00;;;11.10;99.90;;;;;;6197831;23;20256;-63
2022/02/02 20:42:54;;;;;;;240.70;30.60;;;11.10;99.90;;;;;;6199039;23;20004;-61
2022/02/02 21:04:28;;;;;;;209.20;25.98;;;11.00;99.90;;;;;;6184526;23;20054;-59
2022/02/02 21:14:36;;;;;;;161.13;21.70;;;10.90;99.80;;;;;;6185699;23;20081;-59
2022/02/02 21:17:03;;;;;;;156.52;20.55;;;10.90;99.80;;;;;;6233608;23;20018;-62
2022/02/02 21:19:38;;;;;;;186.68;20.42;;;10.90;99.90;;;;;;6182882;23;20008;-61
2022/02/02 21:22:04;;;;;;;151.73;19.40;;;10.90;99.90;;;;;;6209962;23;20094;-62
2022/02/02 21:29:21;;;;;;;119.82;18.15;;;10.90;99.60;;;;;;6207628;23;20005;-59
2022/02/02 21:31:47;;;;;;;156.20;19.50;;;10.80;99.50;;;;;;6207877;23;20005;-61
2022/02/02 21:34:12;;;;;;;128.40;20.00;;;10.80;99.50;;;;;;6207733;23;20550;-62
2022/02/02 21:36:38;;;;;;;144.48;19.15;;;10.80;99.70;;;;;;6182664;23;20089;-58
2022/02/02 21:39:06;;;;;;;172.70;20.45;;;10.80;99.90;;;;;;6235851;23;20024;-59
2022/02/02 21:41:35;;;;;;;141.27;19.95;;;10.80;99.50;;;;;;6233440;23;20008;-61
2022/02/02 21:44:01;;;;;;;116.18;19.52;;;10.80;99.50;;;;;;6232874;23;20023;-60
2022/02/02 21:46:27;;;;;;;151.13;18.63;;;10.80;99.50;;;;;;6233673;23;20054;-60
2022/02/02 21:48:57;;;;;;;129.20;17.83;;;10.80;99.60;;;;;;6159210;23;20000;-62
2022/02/02 21:51:32;;;;;;;130.50;17.48;;;10.80;99.40;;;;;;6208522;23;20012;-60
2022/02/02 21:53:58;;;;;;;103.57;15.60;;;10.70;99.30;;;;;;6207696;23;20414;-63
2022/02/02 21:56:24;;;;;;;131.68;16.20;;;10.70;99.30;;;;;;6178868;23;20119;-61
2022/02/02 21:58:49;;;;;;;96.47;16.40;;;10.70;99.20;;;;;;6205511;23;20548;-64
2022/02/02 22:01:15;;;;;;;111.97;16.48;;;10.70;99.20;;;;;;6207231;23;20008;-64
2022/02/02 22:03:41;;;;;;;111.43;16.48;;;10.70;99.00;;;;;;6184390;23;20081;-62
2022/02/02 22:06:06;;;;;;;110.85;17.60;;;10.70;99.10;;;;;;6235081;23;20322;-62
2022/02/02 22:08:32;;;;;;;102.53;15.57;;;10.70;99.00;;;;;;6234867;23;20000;-60
2022/02/02 22:10:57;;;;;;;116.95;16.15;;;10.60;98.90;;;;;;6235275;23;20004;-62
2022/02/02 22:13:33;;;;;;;87.90;14.23;;;10.60;98.90;;;;;;6183888;23;20004;-61
2022/02/02 22:16:04;;;;;;;;;;;10.60;98.80;;;;;;6237302;23;20032;-62
2022/02/02 22:18:29;;;;;;;105.70;15.18;;;10.60;98.80;;;;;;6235521;23;19910;-62
2022/02/02 22:20:56;;;;;;;101.88;15.45;;;10.60;98.80;;;;;;6234786;23;20000;-63
2022/02/02 22:23:23;;;;;;;103.28;14.05;;;10.60;98.80;;;;;;6234548;23;20008;-61
2022/02/02 22:25:49;;;;;;;96.97;14.38;;;10.60;98.80;;;;;;6235402;23;20141;-60
2022/02/02 22:28:15;;;;;;;102.03;14.65;;;10.60;98.70;;;;;;6236042;23;20014;-60
2022/02/02 22:30:40;;;;;;;82.95;12.60;;;10.60;98.70;;;;;;6236424;23;20004;-60
2022/02/02 22:33:06;;;;;;;95.93;13.52;;;10.60;98.70;;;;;;6182087;23;20377;-61
2022/02/02 22:35:31;;;;;;;84.78;13.13;;;10.50;98.70;;;;;;6234994;23;20495;-60
2022/02/02 22:37:57;;;;;;;83.45;13.60;;;10.50;98.60;;;;;;6207229;23;20466;-62
2022/02/02 22:40:25;;;;;;;99.22;13.75;;;10.50;98.60;;;;;;6235404;23;20008;-62
2022/02/02 22:42:51;;;;;;;84.65;12.70;;;10.50;98.70;;;;;;6234902;23;20497;-60
2022/02/02 22:45:16;;;;;;;95.95;13.90;;;10.50;98.70;;;;;;6234922;23;20075;-59
2022/02/02 22:47:47;;;;;;;84.82;13.48;;;10.50;98.80;;;;;;6207400;23;19996;-59
2022/02/02 22:50:12;;;;;;;86.75;13.35;;;10.50;98.80;;;;;;6206665;23;20384;-63
2022/02/02 22:52:41;;;;;;;85.78;14.07;;;10.50;98.80;;;;;;6181901;23;20004;-60
2022/02/02 22:55:11;;;;;;;75.32;11.68;;;10.50;98.80;;;;;;6185291;23;20011;-62
2022/02/02 22:57:36;;;;;;;94.85;13.88;;;10.50;98.80;;;;;;6184607;23;20702;-60
2022/02/02 23:00:06;;;;;;;75.32;12.55;;;10.50;98.70;;;;;;6207790;23;20079;-62
2022/02/02 23:02:48;;;;;;;81.72;13.55;;;10.40;98.70;;;;;;6233583;23;20007;-60
2022/02/02 23:05:14;;;;;;;85.82;14.45;;;10.40;98.60;;;;;;6235802;23;20027;-59
2022/02/02 23:07:40;;;;;;;84.65;14.60;;;10.40;98.70;;;;;;6182207;23;20450;-60
2022/02/02 23:10:05;;;;;;;86.38;15.98;;;10.40;98.80;;;;;;6235108;23;20068;-61
2022/02/02 23:12:31;;;;;;;74.75;13.90;;;10.40;98.80;;;;;;6206629;23;20079;-61
2022/02/02 23:14:59;;;;;;;97.95;15.82;;;10.40;98.70;;;;;;6206900;23;20079;-59
2022/02/02 23:17:29;;;;;;;92.95;15.63;;;10.40;98.70;;;;;;6234427;23;20014;-59
2022/02/02 23:19:54;;;;;;;62.92;16.08;;;10.40;98.70;;;;;;6236403;23;20031;-61
2022/02/02 23:22:24;;;;;;;73.05;16.30;;;10.40;98.70;;;;;;6232920;23;20024;-62
2022/02/02 23:24:51;;;;;;;67.95;14.25;;;10.40;98.60;;;;;;6207148;23;20026;-61